Time;durP1;ratioP1;P1;durP2;ratioP2;P2;SDS_P1;SDS_P2;PMS_P1;PMS_P2;Temp;Humidity;BMP_temperature;BMP_pressure;BME280_temperature;BME280_humidity;BME280_pressure;Samples;Min_cycle;Max_cycle;Signal;HPM_P1;HPM_P2
2023/01/04 00:01:16;;;;;;;5.93;1.83;;;9.60;99.90;;;;;;5043234;28;20151;-39
2023/01/04 00:03:42;;;;;;;6.95;1.80;;;9.60;99.90;;;;;;5043734;28;20385;-40
2023/01/04 00:06:11;;;;;;;3.47;1.60;;;9.60;99.90;;;;;;5042786;28;20013;-41
2023/01/04 00:08:37;;;;;;;5.05;1.50;;;9.60;99.90;;;;;;5043899;28;20028;-40
2023/01/04 00:11:05;;;;;;;5.97;1.50;;;9.60;99.90;;;;;;5044197;28;20484;-40
2023/01/04 00:13:31;;;;;;;3.70;1.98;;;9.60;99.90;;;;;;5043293;28;20278;-38
2023/01/04 00:16:03;;;;;;;4.82;1.92;;;9.60;99.90;;;;;;5043903;28;20120;-40
2023/01/04 00:18:29;;;;;;;5.68;1.70;;;9.60;99.90;;;;;;5043995;28;20037;-39
2023/01/04 00:21:04;;;;;;;4.38;1.42;;;9.50;99.90;;;;;;5046408;28;20025;-41
2023/01/04 00:23:30;;;;;;;5.03;1.80;;;9.50;99.90;;;;;;5048104;28;20091;-39
2023/01/04 00:25:55;;;;;;;4.75;2.22;;;9.50;99.90;;;;;;5047809;28;20548;-40
2023/01/04 00:28:24;;;;;;;3.08;1.40;;;9.50;99.90;;;;;;5046723;28;20025;-39
2023/01/04 00:30:52;;;;;;;3.13;1.42;;;9.50;99.90;;;;;;5046568;28;20021;-39
2023/01/04 00:33:18;;;;;;;3.75;1.30;;;9.40;99.90;;;;;;5046908;28;20059;-38
2023/01/04 00:35:43;;;;;;;4.05;1.58;;;9.40;99.90;;;;;;5046722;28;20068;-40
2023/01/04 00:38:09;;;;;;;5.32;1.73;;;9.50;99.90;;;;;;5046922;28;20457;-40
2023/01/04 00:40:34;;;;;;;3.53;1.23;;;9.50;99.90;;;;;;5047641;28;20573;-41
2023/01/04 00:43:00;;;;;;;9.77;1.95;;;9.40;99.90;;;;;;5046635;28;20041;-40
2023/01/04 00:45:25;;;;;;;4.28;1.70;;;9.40;99.90;;;;;;5047300;28;20555;-39
2023/01/04 00:47:51;;;;;;;5.80;1.50;;;9.40;99.90;;;;;;5048174;28;20548;-39
2023/01/04 00:50:16;;;;;;;5.18;1.90;;;9.40;99.90;;;;;;5046075;28;20057;-36
2023/01/04 00:52:48;;;;;;;2.78;1.63;;;9.40;99.90;;;;;;5047665;28;20025;-38
2023/01/04 00:55:13;;;;;;;4.53;1.48;;;9.40;99.90;;;;;;5046117;28;20029;-38
2023/01/04 00:57:39;;;;;;;2.38;1.50;;;9.40;99.90;;;;;;5047159;28;20388;-38
2023/01/04 01:00:05;;;;;;;3.83;1.40;;;9.40;99.90;;;;;;5046264;28;20037;-40
2023/01/04 01:02:30;;;;;;;4.53;1.30;;;9.40;99.90;;;;;;5046723;28;20013;-39
2023/01/04 01:04:56;;;;;;;5.40;1.70;;;9.40;99.90;;;;;;5046765;28;20032;-40
2023/01/04 01:07:21;;;;;;;4.85;1.73;;;9.40;99.90;;;;;;5046281;28;20021;-40
2023/01/04 01:09:47;;;;;;;3.90;1.50;;;9.40;99.90;;;;;;5046122;28;20582;-40
2023/01/04 01:12:22;;;;;;;5.13;1.50;;;9.40;99.90;;;;;;5046372;28;20098;-41
2023/01/04 01:14:56;;;;;;;3.03;1.50;;;9.40;99.90;;;;;;5047002;28;20025;-40
2023/01/04 01:17:22;;;;;;;5.13;1.90;;;9.40;99.90;;;;;;5044797;28;20021;-39
2023/01/04 01:19:47;;;;;;;4.10;1.40;;;9.40;99.90;;;;;;5045413;28;20044;-38
2023/01/04 01:22:13;;;;;;;2.47;1.30;;;9.40;99.90;;;;;;5036601;28;20746;-40
2023/01/04 01:24:38;;;;;;;3.15;1.50;;;9.40;99.90;;;;;;5046411;28;20033;-40
2023/01/04 01:27:04;;;;;;;2.72;1.10;;;9.40;99.90;;;;;;5045879;28;20516;-40
2023/01/04 01:29:30;;;;;;;4.00;1.48;;;9.40;99.90;;;;;;5046136;28;20029;-41
2023/01/04 01:31:55;;;;;;;2.60;1.33;;;9.40;99.90;;;;;;5045590;28;20025;-41
2023/01/04 01:34:21;;;;;;;3.58;1.40;;;9.50;99.90;;;;;;5045499;28;20053;-41
2023/01/04 01:36:46;;;;;;;2.15;1.35;;;9.50;99.90;;;;;;5046016;28;20026;-40
2023/01/04 01:39:12;;;;;;;3.33;1.33;;;9.50;99.90;;;;;;5045458;28;20715;-40
2023/01/04 01:41:38;;;;;;;4.18;1.40;;;9.50;99.90;;;;;;5046278;28;20701;-40
2023/01/04 01:44:12;;;;;;;2.15;1.20;;;9.50;99.90;;;;;;5046050;28;20075;-39
2023/01/04 01:46:46;;;;;;;2.70;1.35;;;9.50;99.90;;;;;;5045747;28;20629;-41
2023/01/04 01:49:27;;;;;;;3.45;1.35;;;9.50;99.90;;;;;;5046008;28;20037;-41
2023/01/04 01:51:54;;;;;;;1.83;1.40;;;9.50;99.90;;;;;;5045397;28;20075;-41
2023/01/04 01:54:35;;;;;;;3.45;1.40;;;9.50;99.90;;;;;;5045511;28;20120;-41
2023/01/04 01:57:04;;;;;;;2.60;1.27;;;9.50;99.90;;;;;;5045514;28;20031;-41
2023/01/04 01:59:32;;;;;;;5.63;1.23;;;9.50;99.90;;;;;;5045245;28;20072;-40
2023/01/04 02:01:58;;;;;;;1.60;1.15;;;9.50;99.90;;;;;;5045529;28;20032;-38
2023/01/04 02:04:24;;;;;;;1.73;1.10;;;9.50;99.90;;;;;;5045882;28;20032;-37
2023/01/04 02:06:53;;;;;;;2.58;1.10;;;9.60;99.90;;;;;;5045270;28;20029;-41
2023/01/04 02:09:23;;;;;;;2.15;1.13;;;9.60;99.90;;;;;;5042143;28;20442;-39
2023/01/04 02:11:48;;;;;;;2.45;1.30;;;9.60;99.90;;;;;;5045395;28;20017;-38
2023/01/04 02:14:26;;;;;;;2.13;1.20;;;9.70;99.90;;;;;;5044929;28;20032;-41
2023/01/04 02:17:16;;;;;;;2.38;1.25;;;9.70;99.90;;;;;;5045948;28;20029;-40
2023/01/04 02:19:47;;;;;;;2.25;1.30;;;9.70;99.90;;;;;;5041715;28;20036;-37
2023/01/04 02:22:53;;;;;;;1.27;1.00;;;9.70;99.90;;;;;;5045196;28;20112;-41
2023/01/04 02:25:37;;;;;;;1.15;0.95;;;9.70;99.90;;;;;;5034733;28;20248;-38
2023/01/04 02:28:21;;;;;;;1.73;1.08;;;9.80;99.90;;;;;;5044518;28;20057;-40
2023/01/04 02:31:14;;;;;;;2.03;1.30;;;9.80;99.90;;;;;;5045355;28;20468;-41
2023/01/04 02:33:48;;;;;;;1.38;1.02;;;9.80;99.90;;;;;;5044328;28;20056;-39
2023/01/04 02:36:42;;;;;;;3.95;1.13;;;9.80;99.90;;;;;;5044977;28;20052;-41
2023/01/04 02:39:19;;;;;;;2.17;0.95;;;9.90;99.90;;;;;;5044546;28;20040;-41
2023/01/04 02:42:15;;;;;;;1.92;1.10;;;9.80;99.90;;;;;;5044353;28;20397;-40
2023/01/04 02:44:53;;;;;;;2.13;0.95;;;9.90;99.90;;;;;;5044668;28;20108;-41
2023/01/04 02:50:30;;;;;;;1.42;1.02;;;9.90;99.90;;;;;;5044095;28;20044;-40
2023/01/04 02:53:13;;;;;;;2.03;0.90;;;10.00;99.90;;;;;;5045107;28;20041;-40
2023/01/04 02:55:46;;;;;;;;;;;10.00;99.90;;;;;;5043681;28;20028;-40
2023/01/04 02:58:35;;;;;;;1.75;1.15;;;10.00;99.90;;;;;;5045544;28;19921;-39
2023/01/04 03:07:48;;;;;;;0.82;0.82;;;10.00;99.90;;;;;;5040074;28;20116;-40
2023/01/04 03:10:23;;;;;;;1.80;0.70;;;10.00;99.90;;;;;;5043922;28;20021;-39
2023/01/04 03:12:56;;;;;;;1.05;0.90;;;10.10;99.90;;;;;;5045111;28;20116;-41
2023/01/04 03:15:24;;;;;;;;;;;10.00;99.90;;;;;;5045385;28;20028;-40
2023/01/04 03:17:57;;;;;;;1.33;0.90;;;10.10;99.90;;;;;;5044229;28;19909;-40
2023/01/04 03:20:26;;;;;;;1.15;0.75;;;10.10;99.90;;;;;;5044070;28;20049;-41
2023/01/04 03:37:19;;;;;;;0.77;0.77;;;10.20;99.90;;;;;;5042959;28;20132;-40
2023/01/04 03:48:32;;;;;;;1.00;0.88;;;10.30;99.90;;;;;;5035806;28;20075;-39
2023/01/04 03:51:16;;;;;;;1.98;0.90;;;10.30;99.90;;;;;;5043773;28;20037;-40
2023/01/04 03:54:06;;;;;;;1.30;0.90;;;10.40;99.90;;;;;;5045274;28;20071;-38
2023/01/04 03:56:34;;;;;;;0.70;0.70;;;10.40;99.90;;;;;;5045881;28;20390;-39
2023/01/04 03:59:00;;;;;;;1.52;0.90;;;10.40;99.90;;;;;;5045087;28;20120;-35
2023/01/04 04:01:27;;;;;;;0.70;0.70;;;10.40;99.90;;;;;;5045054;28;20167;-36
2023/01/04 04:09:22;;;;;;;1.23;0.90;;;10.50;99.90;;;;;;5044005;28;20047;-37
2023/01/04 04:11:48;;;;;;;1.77;0.90;;;10.60;99.90;;;;;;5043829;28;20388;-37
2023/01/04 04:14:14;;;;;;;1.35;1.20;;;10.60;99.90;;;;;;5042450;28;20741;-40
2023/01/04 04:16:39;;;;;;;1.15;1.00;;;10.60;99.90;;;;;;5043853;28;20025;-40
2023/01/04 04:19:05;;;;;;;0.98;0.95;;;10.60;99.90;;;;;;5042441;28;20102;-41
2023/01/04 04:21:31;;;;;;;3.25;1.35;;;10.70;99.90;;;;;;5043466;28;20837;-40
2023/01/04 04:23:56;;;;;;;1.00;1.00;;;10.70;99.90;;;;;;5043823;28;20033;-39
2023/01/04 04:26:23;;;;;;;3.22;1.30;;;10.70;99.90;;;;;;5042890;28;20048;-40
2023/01/04 04:28:51;;;;;;;1.30;1.20;;;10.70;99.90;;;;;;5043418;28;20404;-40
2023/01/04 04:31:17;;;;;;;2.22;1.30;;;10.80;99.90;;;;;;5043589;28;20017;-40
2023/01/04 04:33:42;;;;;;;1.50;1.38;;;10.80;99.90;;;;;;5042004;28;20041;-41
2023/01/04 04:36:09;;;;;;;1.50;1.40;;;10.80;99.90;;;;;;5043299;28;20141;-40
2023/01/04 04:38:35;;;;;;;1.50;1.40;;;10.90;99.90;;;;;;5043328;28;20702;-40
2023/01/04 04:41:45;;;;;;;1.48;1.38;;;10.90;99.90;;;;;;5042286;28;20025;-41
2023/01/04 04:44:15;;;;;;;1.52;1.42;;;10.90;99.90;;;;;;5042533;28;20039;-41
2023/01/04 04:46:41;;;;;;;1.65;1.33;;;10.90;99.90;;;;;;5043809;28;20449;-41
2023/01/04 04:49:08;;;;;;;3.15;1.67;;;11.00;99.90;;;;;;5042111;28;20033;-38
2023/01/04 04:51:34;;;;;;;2.13;1.70;;;10.90;99.90;;;;;;5043979;28;20025;-40
2023/01/04 04:54:00;;;;;;;1.92;1.42;;;10.90;99.90;;;;;;5042898;28;20021;-40
2023/01/04 04:56:25;;;;;;;2.03;1.40;;;10.90;99.90;;;;;;5042897;28;20048;-41
2023/01/04 04:58:51;;;;;;;1.88;1.52;;;11.00;99.90;;;;;;5042767;28;20069;-41
2023/01/04 05:01:17;;;;;;;1.48;1.27;;;11.00;99.90;;;;;;5042617;28;20035;-41
2023/01/04 05:03:43;;;;;;;2.38;1.30;;;11.00;99.90;;;;;;5043886;28;20120;-41
2023/01/04 05:06:08;;;;;;;1.52;1.20;;;11.00;99.90;;;;;;5044194;28;20021;-40
2023/01/04 05:08:34;;;;;;;2.88;1.50;;;11.10;99.90;;;;;;5046604;28;20717;-41
2023/01/04 05:11:05;;;;;;;2.03;1.23;;;11.10;99.90;;;;;;5046562;28;20479;-39
2023/01/04 05:13:30;;;;;;;1.35;1.05;;;11.10;99.90;;;;;;5047787;28;20028;-41
2023/01/04 05:15:56;;;;;;;1.88;1.35;;;11.10;99.90;;;;;;5046390;28;20029;-39
2023/01/04 05:18:22;;;;;;;1.33;1.17;;;11.10;99.90;;;;;;5046487;28;20029;-40
2023/01/04 05:20:47;;;;;;;3.13;1.52;;;11.10;99.90;;;;;;5047260;28;20036;-39
2023/01/04 05:23:14;;;;;;;2.63;1.40;;;11.10;99.90;;;;;;5045977;28;20162;-40
2023/01/04 05:25:40;;;;;;;1.65;1.20;;;11.10;99.90;;;;;;5045694;28;20110;-41
2023/01/04 05:28:07;;;;;;;2.05;1.25;;;11.10;99.90;;;;;;5046675;28;20463;-41
2023/01/04 05:30:52;;;;;;;1.50;1.40;;;11.10;99.90;;;;;;5046333;28;20021;-41
2023/01/04 05:33:26;;;;;;;3.17;1.60;;;11.10;99.90;;;;;;5046411;28;20189;-40
2023/01/04 05:35:54;;;;;;;1.83;1.42;;;11.10;99.90;;;;;;5046629;28;20476;-41
2023/01/04 05:38:20;;;;;;;1.63;1.40;;;11.10;99.90;;;;;;5045737;28;20032;-40
2023/01/04 05:40:47;;;;;;;1.85;1.30;;;11.10;99.90;;;;;;5046449;28;20059;-38
2023/01/04 05:43:14;;;;;;;1.33;1.23;;;11.10;99.90;;;;;;5046655;28;20032;-39
2023/01/04 05:45:42;;;;;;;1.15;1.10;;;11.20;99.90;;;;;;5045918;28;20083;-41
2023/01/04 05:48:08;;;;;;;1.20;1.08;;;11.10;99.90;;;;;;5045941;28;20418;-40
2023/01/04 05:50:33;;;;;;;1.92;1.40;;;11.10;99.90;;;;;;5045784;28;20472;-36
2023/01/04 05:52:59;;;;;;;1.40;1.30;;;11.20;99.90;;;;;;5046300;28;20033;-40
2023/01/04 05:55:25;;;;;;;1.98;1.40;;;11.20;99.90;;;;;;5046151;28;20389;-40
2023/01/04 05:57:50;;;;;;;1.45;1.15;;;11.20;99.90;;;;;;5045517;28;20368;-40
2023/01/04 06:00:16;;;;;;;2.70;1.70;;;11.20;99.90;;;;;;5045556;28;20123;-40
2023/01/04 06:02:43;;;;;;;3.80;1.80;;;11.20;99.90;;;;;;5045739;28;20028;-39
2023/01/04 06:05:09;;;;;;;1.33;1.23;;;11.20;99.90;;;;;;5044705;28;20032;-40
2023/01/04 06:07:35;;;;;;;1.60;1.35;;;11.20;99.90;;;;;;5046518;28;20021;-41
2023/01/04 06:10:01;;;;;;;1.35;1.25;;;11.20;99.90;;;;;;5045739;28;20022;-39
2023/01/04 06:12:26;;;;;;;1.35;1.25;;;11.20;99.90;;;;;;5045234;28;20025;-40
2023/01/04 06:14:52;;;;;;;1.63;1.40;;;11.20;99.90;;;;;;5046499;28;20040;-40
2023/01/04 06:17:18;;;;;;;1.55;1.25;;;11.20;99.90;;;;;;5044488;28;20122;-41
2023/01/04 06:19:43;;;;;;;1.92;1.00;;;11.20;99.90;;;;;;5044818;28;20516;-39
2023/01/04 06:22:09;;;;;;;2.20;1.20;;;11.20;99.90;;;;;;5045538;28;20469;-39
2023/01/04 06:24:34;;;;;;;1.15;1.08;;;11.20;99.90;;;;;;5045654;28;20388;-39
2023/01/04 06:27:01;;;;;;;1.83;1.17;;;11.30;99.90;;;;;;5044135;28;20045;-40
2023/01/04 06:29:27;;;;;;;1.00;0.90;;;11.20;99.90;;;;;;5046180;28;20041;-38
2023/01/04 06:31:53;;;;;;;2.05;1.10;;;11.30;99.90;;;;;;5045436;28;20036;-40
2023/01/04 06:34:18;;;;;;;1.30;1.20;;;11.30;99.90;;;;;;5043863;28;20140;-37
2023/01/04 06:36:44;;;;;;;2.30;1.00;;;11.30;99.90;;;;;;5045368;28;20029;-41
2023/01/04 06:39:09;;;;;;;2.33;1.30;;;11.30;99.90;;;;;;5044387;28;20132;-40
2023/01/04 06:41:35;;;;;;;1.58;1.10;;;11.30;99.90;;;;;;5044817;28;20040;-40
2023/01/04 06:44:01;;;;;;;1.23;1.10;;;11.30;99.90;;;;;;5044588;28;20119;-40
2023/01/04 06:46:26;;;;;;;2.22;1.13;;;11.30;99.90;;;;;;5045106;28;20184;-40
2023/01/04 06:48:52;;;;;;;1.48;1.30;;;11.40;99.90;;;;;;5044317;28;20021;-41
2023/01/04 06:51:19;;;;;;;1.83;1.20;;;11.40;99.90;;;;;;5044699;28;20040;-37
2023/01/04 06:53:45;;;;;;;1.83;1.27;;;11.40;99.90;;;;;;5040652;28;20020;-40
2023/01/04 06:56:10;;;;;;;1.45;1.35;;;11.40;99.90;;;;;;5044852;28;20035;-41
2023/01/04 06:58:36;;;;;;;1.27;1.00;;;11.40;99.90;;;;;;5044939;28;20037;-41
2023/01/04 07:01:02;;;;;;;1.20;1.10;;;11.40;99.90;;;;;;5043327;28;20048;-41
2023/01/04 07:03:27;;;;;;;1.90;1.33;;;11.50;99.90;;;;;;5044970;28;20017;-39
2023/01/04 07:05:53;;;;;;;1.30;1.20;;;11.50;99.90;;;;;;5025226;28;20121;-40
2023/01/04 07:08:19;;;;;;;1.55;1.25;;;11.50;99.90;;;;;;5037432;28;20593;-41
2023/01/04 07:10:45;;;;;;;1.77;1.35;;;11.50;99.90;;;;;;5045043;28;20037;-41
2023/01/04 07:13:11;;;;;;;1.20;1.10;;;11.60;99.90;;;;;;5044115;28;20025;-40
2023/01/04 07:15:36;;;;;;;1.73;1.30;;;11.50;99.90;;;;;;5044066;28;20031;-40
2023/01/04 07:18:02;;;;;;;1.40;1.30;;;11.60;99.90;;;;;;5044034;28;20028;-40
2023/01/04 07:20:28;;;;;;;1.27;1.17;;;11.60;99.90;;;;;;5044709;28;20407;-41
2023/01/04 07:22:53;;;;;;;1.77;1.27;;;11.60;99.90;;;;;;5043536;28;20582;-38
2023/01/04 07:25:19;;;;;;;1.70;1.20;;;11.60;99.90;;;;;;5043820;28;20029;-34
2023/01/04 07:27:50;;;;;;;1.20;0.93;;;11.60;99.90;;;;;;5044402;28;20025;-37
2023/01/04 07:30:16;;;;;;;1.38;1.10;;;11.60;99.90;;;;;;5043449;28;20698;-40
2023/01/04 07:32:41;;;;;;;1.42;1.33;;;11.60;99.90;;;;;;5044199;28;20057;-39
2023/01/04 07:35:07;;;;;;;2.53;1.50;;;11.70;99.90;;;;;;5039648;28;20131;-41
2023/01/04 07:37:33;;;;;;;1.88;1.30;;;11.70;99.90;;;;;;5044465;28;20542;-40
2023/01/04 07:39:58;;;;;;;2.88;1.67;;;11.70;99.90;;;;;;5043840;28;20797;-41
2023/01/04 07:42:25;;;;;;;2.22;1.50;;;11.70;99.90;;;;;;5044655;28;20542;-40
2023/01/04 07:44:50;;;;;;;1.80;1.48;;;11.70;99.90;;;;;;5043915;28;20163;-40
2023/01/04 07:47:16;;;;;;;1.85;1.20;;;11.70;99.90;;;;;;5043966;28;20112;-40
2023/01/04 07:49:42;;;;;;;1.35;1.25;;;11.70;99.90;;;;;;5044001;28;20461;-37
2023/01/04 07:52:07;;;;;;;1.92;1.10;;;11.80;99.90;;;;;;5043008;28;20478;-40
2023/01/04 07:54:33;;;;;;;1.65;1.42;;;11.80;99.90;;;;;;5044100;28;20031;-38
2023/01/04 07:56:58;;;;;;;3.63;1.80;;;11.80;99.90;;;;;;5043750;28;20024;-39
2023/01/04 07:59:24;;;;;;;2.50;1.50;;;11.80;99.90;;;;;;5043292;28;20540;-40
2023/01/04 08:01:49;;;;;;;2.90;1.70;;;11.80;99.90;;;;;;5043710;28;20507;-39
2023/01/04 08:04:16;;;;;;;3.50;1.38;;;11.80;99.90;;;;;;5043080;28;20124;-38
2023/01/04 08:06:45;;;;;;;2.97;1.50;;;11.80;99.90;;;;;;5044194;28;20765;-40
2023/01/04 08:09:11;;;;;;;2.90;1.40;;;11.80;99.90;;;;;;5043095;28;20021;-40
2023/01/04 08:11:37;;;;;;;1.83;1.23;;;11.80;99.90;;;;;;5043151;28;20025;-40
2023/01/04 08:14:03;;;;;;;2.58;1.23;;;11.80;99.90;;;;;;5043180;28;20025;-37
2023/01/04 08:16:35;;;;;;;2.13;1.35;;;11.80;99.90;;;;;;5043997;28;20689;-39
2023/01/04 08:19:06;;;;;;;1.58;1.20;;;11.80;99.90;;;;;;5042651;28;20040;-41
2023/01/04 08:21:34;;;;;;;2.72;1.50;;;11.80;99.90;;;;;;5043569;28;20044;-39
2023/01/04 08:24:00;;;;;;;2.60;1.48;;;11.80;99.90;;;;;;5043363;28;20068;-39
2023/01/04 08:26:27;;;;;;;1.90;1.20;;;11.80;99.90;;;;;;5042520;28;20037;-41
2023/01/04 08:28:53;;;;;;;2.15;1.27;;;11.80;99.90;;;;;;5043658;28;20017;-40
2023/01/04 08:31:23;;;;;;;4.35;1.50;;;11.80;99.90;;;;;;5043051;28;20029;-40
2023/01/04 08:33:50;;;;;;;1.77;1.27;;;11.80;99.90;;;;;;5023234;28;20052;-40
2023/01/04 08:36:22;;;;;;;1.92;1.40;;;11.80;99.90;;;;;;5036648;28;20528;-38
2023/01/04 08:38:49;;;;;;;2.25;1.05;;;11.80;99.90;;;;;;5043896;28;20520;-39
2023/01/04 08:41:16;;;;;;;1.50;1.13;;;11.80;99.90;;;;;;5043425;28;20021;-40
2023/01/04 08:43:42;;;;;;;2.28;1.42;;;11.80;99.90;;;;;;5047858;28;20033;-39
2023/01/04 08:46:08;;;;;;;2.28;1.17;;;11.90;99.90;;;;;;5046990;28;20146;-42
2023/01/04 08:48:34;;;;;;;2.15;1.10;;;11.90;99.90;;;;;;5046672;28;20028;-40
2023/01/04 08:51:28;;;;;;;0.95;0.93;;;11.90;99.90;;;;;;5046087;28;20096;-41
2023/01/04 08:53:54;;;;;;;1.17;1.05;;;11.90;99.90;;;;;;5046212;28;20044;-37
2023/01/04 08:56:19;;;;;;;2.20;1.10;;;11.90;99.90;;;;;;5046630;28;20017;-40
2023/01/04 08:58:45;;;;;;;3.22;1.30;;;11.90;99.90;;;;;;5047600;28;20108;-39
2023/01/04 09:01:10;;;;;;;1.40;1.30;;;11.90;99.90;;;;;;5045634;28;20570;-40
2023/01/04 09:03:37;;;;;;;1.75;1.40;;;11.90;99.90;;;;;;5047506;28;20028;-40
2023/01/04 09:06:14;;;;;;;1.33;1.20;;;11.90;99.90;;;;;;5046715;28;20158;-40
2023/01/04 09:08:41;;;;;;;1.55;1.23;;;11.90;99.90;;;;;;5047049;28;20087;-39
2023/01/04 09:11:13;;;;;;;1.38;1.17;;;11.90;99.90;;;;;;5046245;28;20028;-40
2023/01/04 09:13:39;;;;;;;1.50;1.30;;;12.00;99.90;;;;;;5047073;28;20404;-40
2023/01/04 09:16:08;;;;;;;2.03;1.10;;;12.00;99.90;;;;;;5046458;28;20035;-40
2023/01/04 09:18:34;;;;;;;2.08;1.25;;;11.90;99.90;;;;;;5046831;28;20501;-40
2023/01/04 09:21:14;;;;;;;2.95;1.58;;;12.00;99.90;;;;;;5046738;28;20118;-42
2023/01/04 09:23:40;;;;;;;1.30;1.10;;;12.00;99.90;;;;;;5045658;28;20032;-39
2023/01/04 09:26:14;;;;;;;2.38;1.30;;;12.00;99.90;;;;;;5045996;28;20079;-40
2023/01/04 09:28:39;;;;;;;2.13;1.40;;;12.00;99.90;;;;;;5045858;28;20083;-40
2023/01/04 09:31:07;;;;;;;1.98;1.15;;;12.00;99.90;;;;;;5046406;28;20563;-40
2023/01/04 09:33:33;;;;;;;1.60;1.40;;;12.00;99.90;;;;;;5046034;28;20123;-40
2023/01/04 09:36:03;;;;;;;2.55;1.38;;;12.00;99.90;;;;;;5045479;28;20469;-39
2023/01/04 09:38:30;;;;;;;3.60;1.45;;;12.10;99.90;;;;;;5046325;28;20167;-39
2023/01/04 09:41:25;;;;;;;2.42;1.42;;;12.10;99.90;;;;;;5046497;28;20025;-39
2023/01/04 09:43:54;;;;;;;3.17;1.42;;;12.10;99.90;;;;;;5043166;28;20037;-40
2023/01/04 09:47:01;;;;;;;2.78;1.48;;;12.10;99.90;;;;;;5046276;28;20032;-40
2023/01/04 09:49:40;;;;;;;2.75;1.65;;;12.10;99.90;;;;;;5046596;28;20106;-40
2023/01/04 09:52:08;;;;;;;2.58;1.55;;;12.10;99.90;;;;;;5045162;28;20198;-40
2023/01/04 09:54:56;;;;;;;2.10;1.40;;;12.10;99.90;;;;;;5046048;28;20125;-40
2023/01/04 09:57:26;;;;;;;2.00;1.30;;;12.10;99.90;;;;;;5045589;28;20055;-41
2023/01/04 10:00:29;;;;;;;1.20;1.10;;;12.10;99.90;;;;;;5044848;28;20033;-40
2023/01/04 10:03:39;;;;;;;3.08;1.30;;;12.10;99.90;;;;;;5045939;28;20082;-40
2023/01/04 10:06:08;;;;;;;2.75;1.27;;;12.10;99.90;;;;;;5032953;28;20025;-40
2023/01/04 10:08:34;;;;;;;4.05;1.60;;;12.10;99.90;;;;;;5045847;28;20360;-40
2023/01/04 10:11:16;;;;;;;2.97;1.60;;;12.10;99.90;;;;;;5044534;28;20033;-39
2023/01/04 10:14:02;;;;;;;2.88;1.20;;;12.20;99.90;;;;;;5046233;28;20029;-39
2023/01/04 10:16:47;;;;;;;1.80;1.02;;;12.20;99.90;;;;;;5046081;28;20057;-40
2023/01/04 10:19:51;;;;;;;2.35;1.33;;;12.20;99.90;;;;;;5044277;28;20059;-40
2023/01/04 10:22:28;;;;;;;1.73;1.30;;;12.20;99.90;;;;;;5026284;28;20037;-40
2023/01/04 10:25:21;;;;;;;2.75;1.35;;;12.30;99.90;;;;;;5044616;28;20025;-39
2023/01/04 10:28:32;;;;;;;1.77;1.23;;;12.20;99.90;;;;;;5025874;28;20029;-39
2023/01/04 10:31:19;;;;;;;2.20;1.30;;;12.20;99.90;;;;;;5042013;28;20028;-38
2023/01/04 10:34:05;;;;;;;1.48;1.10;;;12.30;99.90;;;;;;5044616;28;20052;-40
2023/01/04 10:36:31;;;;;;;1.65;0.98;;;12.30;99.90;;;;;;5044840;28;20017;-39
2023/01/04 10:39:11;;;;;;;1.48;0.98;;;12.30;99.90;;;;;;5044862;28;20037;-40
2023/01/04 10:41:44;;;;;;;1.25;1.00;;;12.30;99.90;;;;;;5047892;28;20033;-37
2023/01/04 10:44:17;;;;;;;2.20;1.15;;;12.30;99.90;;;;;;5046132;28;20120;-38
2023/01/04 10:46:59;;;;;;;1.13;1.00;;;12.30;99.90;;;;;;5046116;28;20021;-37
2023/01/04 10:49:40;;;;;;;1.43;1.10;;;12.30;99.90;;;;;;5045329;28;20060;-37
2023/01/04 10:52:17;;;;;;;1.70;1.02;;;12.30;99.90;;;;;;5044390;28;20037;-39
2023/01/04 10:54:57;;;;;;;1.40;1.30;;;12.30;99.90;;;;;;5044471;28;20106;-37
2023/01/04 10:57:38;;;;;;;1.60;1.30;;;12.30;99.90;;;;;;5034456;28;20025;-36
2023/01/04 11:00:14;;;;;;;1.95;1.40;;;12.30;99.90;;;;;;5043813;28;20033;-39
2023/01/04 11:02:54;;;;;;;3.10;1.10;;;12.30;99.90;;;;;;5035896;28;20025;-39
2023/01/04 11:05:38;;;;;;;1.23;1.10;;;12.30;99.90;;;;;;5043384;28;20531;-40
2023/01/04 11:08:41;;;;;;;1.20;1.00;;;12.30;99.90;;;;;;5044168;28;20048;-38
2023/01/04 11:11:06;;;;;;;;;;;12.40;99.90;;;;;;5033701;28;20040;-40
2023/01/04 11:13:33;;;;;;;1.10;1.00;;;12.40;99.90;;;;;;5044633;28;19939;-40
2023/01/04 11:16:00;;;;;;;1.02;0.80;;;12.40;99.90;;;;;;5043701;28;20057;-36
2023/01/04 11:18:25;;;;;;;1.08;0.93;;;12.40;99.90;;;;;;5044790;28;20032;-39
2023/01/04 11:20:51;;;;;;;1.23;0.90;;;12.40;99.90;;;;;;5044984;28;20028;-40
2023/01/04 11:23:19;;;;;;;0.90;0.80;;;12.40;99.90;;;;;;5043200;28;20021;-40
2023/01/04 11:25:58;;;;;;;1.40;1.00;;;12.40;99.90;;;;;;5044378;28;20059;-41
2023/01/04 11:28:46;;;;;;;1.75;0.90;;;12.50;99.90;;;;;;5032718;28;20025;-39
2023/01/04 11:31:21;;;;;;;1.23;0.90;;;12.50;99.90;;;;;;5043575;28;20460;-40
2023/01/04 11:33:53;;;;;;;1.13;0.80;;;12.40;99.90;;;;;;5044058;28;20061;-40
2023/01/04 11:36:38;;;;;;;1.75;1.05;;;12.40;99.90;;;;;;5042470;28;20017;-40
2023/01/04 11:39:17;;;;;;;2.17;1.10;;;12.50;99.90;;;;;;5043867;28;20033;-39
2023/01/04 11:42:04;;;;;;;1.05;1.02;;;12.40;99.90;;;;;;5043929;28;20126;-38
2023/01/04 11:44:34;;;;;;;1.50;1.15;;;12.50;99.90;;;;;;5043750;28;20036;-37
2023/01/04 11:47:23;;;;;;;1.45;1.05;;;12.50;99.90;;;;;;5043633;28;20017;-40
2023/01/04 11:49:48;;;;;;;1.08;0.90;;;12.50;99.90;;;;;;5043877;28;20025;-39
2023/01/04 11:52:26;;;;;;;1.42;1.00;;;12.50;99.90;;;;;;5043178;28;20150;-37
2023/01/04 11:54:52;;;;;;;0.85;0.85;;;12.50;99.90;;;;;;5045091;28;20070;-36
2023/01/04 11:57:19;;;;;;;1.10;1.00;;;12.50;99.90;;;;;;5042791;28;20111;-40
2023/01/04 11:59:44;;;;;;;1.48;0.80;;;12.50;99.90;;;;;;5043898;28;20036;-41
2023/01/04 12:02:17;;;;;;;1.17;0.90;;;12.50;99.90;;;;;;5043259;28;20040;-38
2023/01/04 12:04:43;;;;;;;0.80;0.80;;;12.50;99.90;;;;;;5043103;28;20381;-40
2023/01/04 12:07:23;;;;;;;0.80;0.80;;;12.50;99.90;;;;;;5043371;28;20021;-39
2023/01/04 12:09:49;;;;;;;0.75;0.75;;;12.50;99.90;;;;;;5033915;28;20153;-39
2023/01/04 12:12:15;;;;;;;0.80;0.80;;;12.50;99.90;;;;;;5042741;28;20052;-40
2023/01/04 12:14:48;;;;;;;0.82;0.82;;;12.60;99.90;;;;;;5043811;28;20031;-40
2023/01/04 12:17:45;;;;;;;1.10;0.90;;;12.60;99.90;;;;;;5043004;28;20017;-40
2023/01/04 12:20:16;;;;;;;0.93;0.90;;;12.60;99.90;;;;;;5033497;28;20045;-40
2023/01/04 12:22:41;;;;;;;1.20;1.10;;;12.70;99.90;;;;;;5043503;28;20032;-39
2023/01/04 12:25:27;;;;;;;1.27;1.02;;;12.70;99.90;;;;;;5042653;28;20029;-38
2023/01/04 12:27:56;;;;;;;1.42;1.20;;;12.70;99.90;;;;;;5044427;28;20021;-38
2023/01/04 12:30:43;;;;;;;1.15;0.95;;;12.70;99.90;;;;;;5043435;28;20036;-39
2023/01/04 12:33:30;;;;;;;1.40;1.17;;;12.70;99.90;;;;;;5042493;28;20388;-40
2023/01/04 12:36:03;;;;;;;1.30;1.20;;;12.80;99.90;;;;;;5035296;28;20082;-40
2023/01/04 12:38:51;;;;;;;1.35;1.25;;;12.80;99.90;;;;;;5042806;28;20041;-41
2023/01/04 12:41:23;;;;;;;1.38;1.25;;;12.80;99.90;;;;;;5042825;28;20057;-41
2023/01/04 12:43:49;;;;;;;2.15;1.42;;;12.80;99.90;;;;;;5043460;28;20021;-40
2023/01/04 12:49:26;;;;;;;2.08;1.65;;;12.90;99.90;;;;;;5042864;28;20090;-40
2023/01/04 12:52:07;;;;;;;2.08;1.35;;;12.80;99.90;;;;;;5043852;28;20073;-40
2023/01/04 12:54:59;;;;;;;3.60;1.70;;;12.90;99.90;;;;;;5042718;28;20094;-40
2023/01/04 12:57:33;;;;;;;3.17;1.50;;;12.90;99.90;;;;;;5043851;28;20036;-37
2023/01/04 13:00:05;;;;;;;3.33;1.50;;;12.90;99.90;;;;;;5042395;28;20159;-39
2023/01/04 13:02:34;;;;;;;2.03;1.30;;;13.00;99.90;;;;;;5043471;28;20013;-40
2023/01/04 13:05:21;;;;;;;2.92;1.55;;;13.00;99.90;;;;;;5042906;28;20029;-38
2023/01/04 13:07:55;;;;;;;3.85;1.50;;;13.10;99.90;;;;;;5043368;28;20436;-39
2023/01/04 13:10:41;;;;;;;1.85;1.48;;;13.10;99.90;;;;;;5042912;28;20439;-40
2023/01/04 13:13:34;;;;;;;2.00;1.30;;;13.10;99.90;;;;;;5042680;28;20083;-39
2023/01/04 13:16:05;;;;;;;2.95;1.50;;;13.10;99.90;;;;;;5042834;28;20447;-40
2023/01/04 13:18:46;;;;;;;4.00;1.58;;;13.10;99.90;;;;;;5043323;28;20045;-40
2023/01/04 13:21:14;;;;;;;3.53;1.45;;;13.20;99.90;;;;;;5041782;28;20023;-40
2023/01/04 13:23:53;;;;;;;2.30;1.67;;;13.20;99.90;;;;;;5043928;28;20036;-37
2023/01/04 13:26:47;;;;;;;2.38;1.23;;;13.20;99.90;;;;;;5042776;28;20546;-40
2023/01/04 13:29:27;;;;;;;2.13;1.48;;;13.30;99.90;;;;;;5044680;28;20037;-40
2023/01/04 13:31:56;;;;;;;2.83;1.73;;;13.30;99.90;;;;;;5046974;28;20114;-40
2023/01/04 13:34:27;;;;;;;5.03;2.00;;;13.30;99.90;;;;;;5046605;28;20558;-38
2023/01/04 13:37:04;;;;;;;5.35;1.70;;;13.30;99.90;;;;;;5046079;28;20025;-40
2023/01/04 13:39:29;;;;;;;4.03;1.65;;;13.30;99.90;;;;;;5046549;28;20045;-37
2023/01/04 13:41:56;;;;;;;4.05;1.98;;;13.30;99.90;;;;;;5045366;28;20491;-38
2023/01/04 13:45:03;;;;;;;4.03;1.63;;;13.30;99.90;;;;;;5046520;28;20112;-39
2023/01/04 13:47:32;;;;;;;4.97;1.63;;;13.30;99.90;;;;;;5045511;28;20498;-39
2023/01/04 13:49:58;;;;;;;4.28;1.90;;;13.30;99.90;;;;;;5045582;28;20028;-39
2023/01/04 13:52:28;;;;;;;4.57;1.80;;;13.30;99.90;;;;;;5045846;28;20021;-40
2023/01/04 13:55:26;;;;;;;2.42;1.70;;;13.30;99.90;;;;;;5046831;28;20052;-44